CYYJ/YYJ METAR and TAF weather

Enter ICAO airport designator
Station Type Date Time Source
CYYJ METAR 2018/10/16 20:00 UTC NOAA

CYYJ 162000Z 00000KT 30SM FEW240 18/07 A3031 RMK CI1 CI TR SLP265


Station Type Date Time Source
CYYJ Decoded METAR 2018/10/16 20:00 UTC NOAA

Victoria Int. Airport, B. C., Canada (CYYJ) 48-39N 123-26W 19M
Oct 16, 2018 - 04:00 PM EDT / 2018.10.16 2000 UTC
Wind: Calm:0
Visibility: 30 mile(s):0
Sky conditions: mostly clear
Temperature: 64 F (18 C)
Dew Point: 44 F (7 C)
Relative Humidity: 48%
Pressure (altimeter): 30.31 in. Hg (1026 hPa)
ob: CYYJ 162000Z 00000KT 30SM FEW240 18/07 A3031 RMK CI1 CI TR SLP265
cycle: 20

Station Type Date Time Source
CYYJ TAF 2018/10/16 18:42 UTC NOAA

TAF CYYJ 161739Z 1618/1718 VRB03KT P6SM FEW240 PROB30 1710/1717 1SM BR
RMK NXT FCST BY 170000Z


Example: see airport list